SABE/AEP METAR and TAF weather

Enter ICAO airport designator
Station Type Date Time Source
SABE METAR 2019/12/07 05:00 UTC NOAA

SABE 070500Z 13008KT CAVOK 19/08 Q1015 NOSIG


Station Type Date Time Source
SABE Decoded METAR 2019/12/07 05:00 UTC NOAA

Aeroparque Bs. As. Aerodrome, Argentina (SABE) 34-34S 058-25W 6M
Dec 07, 2019 - 12:00 AM EST / 2019.12.07 0500 UTC
Wind: from the SE (130 degrees) at 9 MPH (8 KT):0
Visibility: greater than 7 mile(s):0
Temperature: 66 F (19 C)
Dew Point: 46 F (8 C)
Relative Humidity: 48%
Pressure (altimeter): 29.97 in. Hg (1015 hPa)
ob: SABE 070500Z 13008KT CAVOK 19/08 Q1015 NOSIG
cycle: 5

Station Type Date Time Source
SABE TAF 2019/12/07 06:00 UTC NOAA

TAF SABE 070500Z 0706/0806 14010KT CAVOK TX24/0720Z TN16/0709Z
BECMG 0710/0712 VRB03KT
BECMG 0714/0716 05010KT

Example: see airport list